createdAt,value
2019-06-01T02:56:44.240Z,30.50
2019-06-01T02:59:14.964Z,30.50
2019-06-01T03:01:56.639Z,30.50
2019-06-01T03:04:19.971Z,30.60
2019-06-01T03:06:52.475Z,30.60
2019-06-01T03:09:25.170Z,30.60
2019-06-01T03:12:00.426Z,30.70
2019-06-01T03:14:32.534Z,30.70
2019-06-01T03:17:03.833Z,30.80
2019-06-01T03:19:37.306Z,30.90
2019-06-01T03:22:08.644Z,30.90
2019-06-01T03:24:40.955Z,30.90
2019-06-01T03:27:14.442Z,31.00
2019-06-01T03:29:47.736Z,31.10
2019-06-01T03:32:34.444Z,31.10
2019-06-01T03:34:50.098Z,31.30
2019-06-01T03:37:21.119Z,31.40
2019-06-01T03:39:51.954Z,31.50
2019-06-01T03:42:23.883Z,31.60
2019-06-01T03:44:54.941Z,31.60
2019-06-01T03:47:25.742Z,31.70
2019-06-01T03:49:56.782Z,31.80
2019-06-01T03:52:27.686Z,31.90
2019-06-01T03:54:58.665Z,32.10
2019-06-01T03:57:30.047Z,32.20
2019-06-01T04:00:01.195Z,32.30
2019-06-01T04:02:33.420Z,32.40
2019-06-01T04:05:05.614Z,32.50
2019-06-01T04:07:38.914Z,32.60
2019-06-01T04:10:10.027Z,32.80
2019-06-01T04:12:41.068Z,33.00
2019-06-01T04:15:16.250Z,33.10
2019-06-01T04:17:45.954Z,33.10
2019-06-01T04:20:18.109Z,33.20
2019-06-01T04:22:48.998Z,33.30
2019-06-01T04:25:20.050Z,33.40
2019-06-01T04:27:50.833Z,33.50
2019-06-01T04:30:25.301Z,33.50
2019-06-01T04:32:56.106Z,33.70
2019-06-01T04:35:27.152Z,33.70
2019-06-01T04:37:58.157Z,33.90
2019-06-01T04:40:29.070Z,34.00
2019-06-01T04:43:00.020Z,34.10
2019-06-01T04:45:31.288Z,34.30
2019-06-01T04:48:02.046Z,34.40
2019-06-01T04:50:33.691Z,34.40
2019-06-01T04:53:04.900Z,34.50
2019-06-01T04:55:35.614Z,34.50
2019-06-01T04:58:06.816Z,34.60
2019-06-01T05:00:37.994Z,34.70
2019-06-01T05:03:10.311Z,34.90
2019-06-01T05:05:41.081Z,35.10
2019-06-01T05:08:13.921Z,35.20
2019-06-01T05:10:44.847Z,35.30
2019-06-01T05:13:17.846Z,35.30
2019-06-01T05:15:49.302Z,35.30
2019-06-01T05:18:20.348Z,35.30
2019-06-01T05:20:51.095Z,35.40
2019-06-01T05:23:22.599Z,35.40
2019-06-01T05:25:53.646Z,35.40
2019-06-01T05:28:24.679Z,35.40
2019-06-01T05:30:55.913Z,35.40
2019-06-01T05:33:36.843Z,35.40
2019-06-01T05:36:00.302Z,35.40
2019-06-01T05:38:31.600Z,35.40
2019-06-01T05:41:02.540Z,35.40
2019-06-01T05:43:33.369Z,35.40
2019-06-01T05:46:04.487Z,35.30
2019-06-01T05:48:35.404Z,35.30
2019-06-01T05:51:06.586Z,35.40
2019-06-01T05:53:37.893Z,35.40
2019-06-01T05:56:08.744Z,35.40
2019-06-01T05:58:39.837Z,35.30
2019-06-01T06:01:12.279Z,35.20
2019-06-01T06:03:47.195Z,35.10
2019-06-01T06:06:18.081Z,35.00
2019-06-01T06:08:49.517Z,35.10
2019-06-01T06:11:21.157Z,35.10
2019-06-01T06:13:52.445Z,35.20
2019-06-01T06:16:23.585Z,35.20
2019-06-01T06:18:54.353Z,35.20
2019-06-01T06:21:25.301Z,35.30
2019-06-01T06:23:56.889Z,35.40
2019-06-01T06:26:27.999Z,35.50
2019-06-01T06:28:59.031Z,35.70
2019-06-01T06:31:30.021Z,35.70
2019-06-01T06:34:01.003Z,35.80
2019-06-01T06:36:31.975Z,35.90
2019-06-01T06:39:05.283Z,36.00
2019-06-01T06:41:35.639Z,36.10
2019-06-01T06:44:06.678Z,36.10
2019-06-01T06:46:37.854Z,36.20
2019-06-01T06:49:10.062Z,36.20
2019-06-01T06:51:41.679Z,36.10
2019-06-01T06:54:14.542Z,36.10
2019-06-01T06:56:44.997Z,36.10
2019-06-01T06:59:16.241Z,36.20
2019-06-01T07:01:47.591Z,36.20
2019-06-01T07:04:19.283Z,36.30
2019-06-01T07:06:50.305Z,36.30
2019-06-01T07:09:21.917Z,36.30
2019-06-01T07:11:52.891Z,36.40
2019-06-01T07:14:25.372Z,36.40
2019-06-01T07:16:56.214Z,36.50
2019-06-01T07:19:27.896Z,36.60
2019-06-01T07:21:59.333Z,36.60
2019-06-01T07:24:30.095Z,36.60
2019-06-01T07:27:00.926Z,36.70
2019-06-01T07:29:32.489Z,36.80
2019-06-01T07:32:03.678Z,36.80
2019-06-01T07:34:41.546Z,36.80
2019-06-01T07:37:07.463Z,36.80
2019-06-01T07:39:38.219Z,36.90
2019-06-01T07:42:09.243Z,36.90
2019-06-01T07:44:40.435Z,37.00
2019-06-01T07:47:11.570Z,37.10
2019-06-01T07:49:42.324Z,37.10
2019-06-01T07:52:13.814Z,37.20
2019-06-01T07:54:45.213Z,37.20
2019-06-01T07:57:16.019Z,37.20
2019-06-01T07:59:47.096Z,37.10
2019-06-01T08:02:17.958Z,37.00
2019-06-01T08:04:54.244Z,36.80
2019-06-01T08:07:23.353Z,36.70
2019-06-01T08:09:54.336Z,36.70
2019-06-01T08:12:27.421Z,36.60
2019-06-01T08:14:58.497Z,36.60
2019-06-01T08:17:30.094Z,36.50
2019-06-01T08:20:01.098Z,36.50
2019-06-01T08:22:32.259Z,36.30
2019-06-01T08:25:03.203Z,36.20
2019-06-01T08:27:33.793Z,36.10
2019-06-01T08:30:06.120Z,35.90
2019-06-01T08:32:37.073Z,35.90
2019-06-01T08:35:09.603Z,35.80
2019-06-01T08:37:40.966Z,35.70
2019-06-01T08:40:12.807Z,35.70
2019-06-01T08:42:43.789Z,35.60
2019-06-01T08:45:15.270Z,35.50
2019-06-01T08:47:46.123Z,35.50
2019-06-01T08:50:17.039Z,35.30
2019-06-01T08:52:48.215Z,35.20
2019-06-01T08:55:19.006Z,35.10
2019-06-01T08:57:49.847Z,35.10
2019-06-01T09:00:21.218Z,35.00
2019-06-01T09:02:52.177Z,34.80
2019-06-01T09:05:24.969Z,34.70
2019-06-01T09:07:55.792Z,34.60
2019-06-01T09:10:27.439Z,34.60
2019-06-01T09:12:58.317Z,34.40
2019-06-01T09:15:29.702Z,34.30
2019-06-01T09:18:00.821Z,34.20
2019-06-01T09:20:35.299Z,34.10
2019-06-01T09:23:04.415Z,34.00
2019-06-01T09:25:35.860Z,33.90
2019-06-01T09:28:06.963Z,33.80
2019-06-01T09:30:38.218Z,33.70
2019-06-01T09:33:09.199Z,33.60
2019-06-01T09:35:52.614Z,33.50
2019-06-01T09:38:12.447Z,33.40
2019-06-01T09:40:43.302Z,33.30
2019-06-01T09:43:14.312Z,33.30
2019-06-01T09:45:46.362Z,33.20
2019-06-01T09:48:17.135Z,33.10
2019-06-01T09:50:48.417Z,33.10
2019-06-01T09:53:19.518Z,33.00
2019-06-01T09:55:50.592Z,32.90
2019-06-01T09:58:21.573Z,32.90
2019-06-01T10:00:53.000Z,32.80
2019-06-01T10:03:24.214Z,32.80
2019-06-01T10:06:01.913Z,32.70
2019-06-01T10:08:27.642Z,32.70
2019-06-01T10:10:58.622Z,32.70
2019-06-01T10:13:30.379Z,32.60
2019-06-01T10:16:01.729Z,32.60
2019-06-01T10:18:34.920Z,32.50
2019-06-01T10:21:05.581Z,32.50
2019-06-01T10:23:36.756Z,32.50
2019-06-01T10:26:07.508Z,32.40
2019-06-01T10:28:39.716Z,32.40
2019-06-01T10:31:11.024Z,32.40
2019-06-01T10:33:43.209Z,32.40
2019-06-01T10:36:20.777Z,32.30
2019-06-01T10:38:47.051Z,32.30
2019-06-01T10:41:17.867Z,32.20
2019-06-01T10:43:48.823Z,32.20
2019-06-01T10:46:19.949Z,32.20
2019-06-01T10:48:50.773Z,32.10
2019-06-01T10:51:21.693Z,32.10
2019-06-01T10:53:52.778Z,32.10
2019-06-01T10:56:23.695Z,32.00
2019-06-01T10:58:59.995Z,32.00
2019-06-01T11:01:27.483Z,32.00
2019-06-01T11:03:58.486Z,31.90
2019-06-01T11:06:37.816Z,31.90
2019-06-01T11:09:01.983Z,31.80
2019-06-01T11:11:32.759Z,31.80
2019-06-01T11:14:03.704Z,31.80
2019-06-01T11:16:35.169Z,31.70
2019-06-01T11:19:06.553Z,31.70
2019-06-01T11:21:37.616Z,31.60
2019-06-01T11:24:08.785Z,31.60
2019-06-01T11:26:43.791Z,31.50
2019-06-01T11:29:15.014Z,31.50
2019-06-01T11:31:46.100Z,31.40
2019-06-01T11:34:16.951Z,31.40
2019-06-01T11:37:04.243Z,31.40
2019-06-01T11:39:20.363Z,31.30
2019-06-01T11:41:51.555Z,31.30
2019-06-01T11:44:22.713Z,31.30
2019-06-01T11:46:53.524Z,31.20
2019-06-01T11:49:24.490Z,31.20
2019-06-01T11:51:55.565Z,31.20
2019-06-01T11:54:27.691Z,31.10
2019-06-01T11:56:58.471Z,31.00
2019-06-01T11:59:29.593Z,31.00
2019-06-01T12:02:00.446Z,31.00
2019-06-01T12:04:31.374Z,30.90
2019-06-01T12:07:16.983Z,30.90
2019-06-01T12:09:35.660Z,30.80
2019-06-01T12:12:06.828Z,30.80
2019-06-01T12:14:38.411Z,30.80
2019-06-01T12:17:09.276Z,30.70
2019-06-01T12:19:40.874Z,30.70
2019-06-01T12:22:11.768Z,30.70
2019-06-01T12:24:43.038Z,30.60
2019-06-01T12:27:14.266Z,30.60
2019-06-01T12:29:45.872Z,30.60
2019-06-01T12:32:16.890Z,30.50
2019-06-01T12:34:48.505Z,30.50
2019-06-01T12:37:34.505Z,30.50
2019-06-01T12:39:54.266Z,30.40
2019-06-01T12:42:24.503Z,30.40
2019-06-01T12:44:55.424Z,30.40
2019-06-01T12:47:26.398Z,30.40
2019-06-01T12:49:57.353Z,30.30
2019-06-01T12:52:28.206Z,30.30
2019-06-01T12:54:59.186Z,30.30
2019-06-01T12:57:30.404Z,30.30
2019-06-01T13:00:01.281Z,30.30
2019-06-01T13:02:32.429Z,30.30
2019-06-01T13:05:03.740Z,30.30
2019-06-01T13:07:50.581Z,30.20
2019-06-01T13:10:09.089Z,30.30
2019-06-01T13:12:41.091Z,30.20
2019-06-01T13:15:13.537Z,30.20
2019-06-01T13:17:45.267Z,30.10
2019-06-01T13:20:17.095Z,30.10
2019-06-01T13:22:48.045Z,30.00
2019-06-01T13:25:19.605Z,30.00
2019-06-01T13:27:50.635Z,30.00
2019-06-01T13:30:22.150Z,30.00
2019-06-01T13:32:53.300Z,30.00
2019-06-01T13:35:24.370Z,29.90
2019-06-01T13:38:10.624Z,29.90
2019-06-01T13:40:27.720Z,29.90
2019-06-01T13:42:58.775Z,29.90
2019-06-01T13:45:29.713Z,29.90
2019-06-01T13:48:00.823Z,29.80
2019-06-01T13:50:31.624Z,29.80
2019-06-01T13:53:02.606Z,29.80
2019-06-01T13:55:34.369Z,29.80
2019-06-01T13:58:05.127Z,29.80
2019-06-01T14:00:36.279Z,29.70
2019-06-01T14:03:07.296Z,29.80
2019-06-01T14:05:38.065Z,29.70
2019-06-01T14:08:08.845Z,29.70
2019-06-01T14:10:40.113Z,29.70
2019-06-01T14:13:11.485Z,29.70
2019-06-01T14:15:42.443Z,29.60
2019-06-01T14:18:13.710Z,29.60
2019-06-01T14:20:45.508Z,29.60
2019-06-01T14:23:16.351Z,29.60
2019-06-01T14:25:48.012Z,29.60
2019-06-01T14:28:19.063Z,29.60
2019-06-01T14:30:50.211Z,29.60
2019-06-01T14:33:21.850Z,29.60
2019-06-01T14:35:52.879Z,29.60
2019-06-01T14:38:23.895Z,29.60
2019-06-01T14:40:55.181Z,29.50
2019-06-01T14:43:26.131Z,29.50
2019-06-01T14:45:58.059Z,29.50
2019-06-01T14:48:29.239Z,29.50
2019-06-01T14:51:00.203Z,29.50
2019-06-01T14:53:31.238Z,29.40
2019-06-01T14:56:02.606Z,29.40
2019-06-01T14:58:33.674Z,29.40
2019-06-01T15:01:04.681Z,29.40
2019-06-01T15:03:35.662Z,29.40
2019-06-01T15:06:07.709Z,29.30
2019-06-01T15:08:38.562Z,29.30
2019-06-01T15:11:09.977Z,29.30
2019-06-01T15:13:40.807Z,29.30
2019-06-01T15:16:11.782Z,29.30
2019-06-01T15:18:42.875Z,29.20
2019-06-01T15:21:13.827Z,29.30
2019-06-01T15:23:44.387Z,29.20
2019-06-01T15:26:15.700Z,29.20
2019-06-01T15:28:46.485Z,29.20
2019-06-01T15:31:17.233Z,29.10
2019-06-01T15:33:48.484Z,29.10
2019-06-01T15:36:19.314Z,29.10
2019-06-01T15:38:51.569Z,29.10
2019-06-01T15:41:23.152Z,29.10
2019-06-01T15:43:54.899Z,29.00
2019-06-01T15:46:25.710Z,29.00
2019-06-01T15:48:57.755Z,28.90
2019-06-01T15:51:28.757Z,28.90
2019-06-01T15:53:59.560Z,28.90
2019-06-01T15:56:30.753Z,28.90
2019-06-01T15:59:02.755Z,28.80
2019-06-01T16:01:33.740Z,28.80
2019-06-01T16:04:04.850Z,28.80
2019-06-01T16:06:35.917Z,28.80
2019-06-01T16:09:08.120Z,28.80
2019-06-01T16:11:39.319Z,28.70
2019-06-01T16:14:10.106Z,28.70
2019-06-01T16:16:41.026Z,28.70
2019-06-01T16:19:12.465Z,28.70
2019-06-01T16:21:43.308Z,28.70
2019-06-01T16:24:14.209Z,28.60
2019-06-01T16:26:45.093Z,28.60
2019-06-01T16:29:15.959Z,28.60
2019-06-01T16:31:47.040Z,28.60
2019-06-01T16:34:18.073Z,28.60
2019-06-01T16:36:49.003Z,28.50
2019-06-01T16:39:19.902Z,28.50
2019-06-01T16:41:51.011Z,28.50
2019-06-01T16:44:21.848Z,28.50
2019-06-01T16:46:52.752Z,28.40
2019-06-01T16:49:27.131Z,28.40
2019-06-01T16:51:59.072Z,28.40
2019-06-01T16:54:30.344Z,28.30
2019-06-01T16:57:01.450Z,28.30
2019-06-01T16:59:32.207Z,28.30
2019-06-01T17:02:03.418Z,28.20
2019-06-01T17:04:34.829Z,28.20
2019-06-01T17:07:08.246Z,28.20
2019-06-01T17:09:37.904Z,28.20
2019-06-01T17:12:08.958Z,28.10
2019-06-01T17:14:39.853Z,28.10
2019-06-01T17:17:10.643Z,28.10
2019-06-01T17:19:41.877Z,28.10
2019-06-01T17:22:12.914Z,28.00
2019-06-01T17:24:43.671Z,28.00
2019-06-01T17:27:14.836Z,28.00
2019-06-01T17:29:46.161Z,28.00
2019-06-01T17:32:24.051Z,27.90
2019-06-01T17:34:49.396Z,27.90
2019-06-01T17:37:20.368Z,27.90
2019-06-01T17:39:51.109Z,27.90
2019-06-01T17:42:22.317Z,27.90
2019-06-01T17:44:53.262Z,27.90
2019-06-01T17:47:27.083Z,27.80
2019-06-01T17:49:56.088Z,27.80
2019-06-01T17:52:27.192Z,27.80
2019-06-01T17:54:58.327Z,27.80
2019-06-01T17:57:29.546Z,27.80
2019-06-01T18:00:01.641Z,27.80
2019-06-01T18:02:32.749Z,27.80
2019-06-01T18:05:04.054Z,27.80
2019-06-01T18:07:35.239Z,27.80
2019-06-01T18:10:08.591Z,27.80
2019-06-01T18:12:38.174Z,27.80
2019-06-01T18:15:10.203Z,27.80
2019-06-01T18:17:41.224Z,27.80
2019-06-01T18:20:12.977Z,27.70
2019-06-01T18:22:44.297Z,27.70
2019-06-01T18:25:17.515Z,27.70
2019-06-01T18:27:48.491Z,27.70
2019-06-01T18:30:19.680Z,27.70
2019-06-01T18:32:50.971Z,27.60
2019-06-01T18:35:21.929Z,27.60
2019-06-01T18:37:52.839Z,27.60
2019-06-01T18:40:26.273Z,27.60
2019-06-01T18:42:57.405Z,27.60
2019-06-01T18:45:28.445Z,27.60
2019-06-01T18:48:00.022Z,27.60
2019-06-01T18:50:31.181Z,27.60
2019-06-01T18:53:02.139Z,27.60
2019-06-01T18:55:35.558Z,27.60
2019-06-01T18:58:06.651Z,27.50
2019-06-01T19:00:39.964Z,27.50
2019-06-01T19:03:11.722Z,27.50
2019-06-01T19:05:42.882Z,27.50
2019-06-01T19:08:14.276Z,27.50
2019-06-01T19:10:46.584Z,27.50
2019-06-01T19:13:17.896Z,27.50
2019-06-01T19:15:49.290Z,27.50
2019-06-01T19:18:20.228Z,27.50
2019-06-01T19:20:51.184Z,27.50
2019-06-01T19:23:23.030Z,27.50
2019-06-01T19:25:53.908Z,27.50
2019-06-01T19:28:24.901Z,27.50
2019-06-01T19:30:56.054Z,27.50
2019-06-01T19:33:26.907Z,27.50
2019-06-01T19:35:58.544Z,27.50
2019-06-01T19:38:31.663Z,27.50
2019-06-01T19:41:02.628Z,27.50
2019-06-01T19:43:33.596Z,27.50
2019-06-01T19:46:04.741Z,27.50
2019-06-01T19:48:36.177Z,27.50
2019-06-01T19:51:08.611Z,27.50
2019-06-01T19:53:39.731Z,27.50
2019-06-01T19:56:10.804Z,27.50
2019-06-01T19:58:41.933Z,27.50
2019-06-01T20:01:14.111Z,27.50
2019-06-01T20:03:45.125Z,27.50
2019-06-01T20:06:17.073Z,27.50
2019-06-01T20:08:48.178Z,27.50
2019-06-01T20:11:19.334Z,27.50
2019-06-01T20:13:50.289Z,27.50
2019-06-01T20:16:21.279Z,27.50
2019-06-01T20:18:52.078Z,27.50
2019-06-01T20:21:22.986Z,27.50
2019-06-01T20:23:53.757Z,27.50
2019-06-01T20:26:38.988Z,27.50
2019-06-01T20:28:57.373Z,27.40
2019-06-01T20:31:28.459Z,27.40
2019-06-01T20:33:59.326Z,27.50
2019-06-01T20:36:30.232Z,27.50
2019-06-01T20:39:04.342Z,27.40
2019-06-01T20:41:33.482Z,27.40
2019-06-01T20:44:04.416Z,27.40
2019-06-01T20:46:35.300Z,27.40
2019-06-01T20:49:06.165Z,27.40
2019-06-01T20:51:36.928Z,27.30
2019-06-01T20:54:08.191Z,27.40
2019-06-01T20:56:39.075Z,27.40
2019-06-01T20:59:10.030Z,27.30
2019-06-01T21:01:40.934Z,27.40
2019-06-01T21:04:11.782Z,27.30
2019-06-01T21:06:42.494Z,27.40
2019-06-01T21:09:13.699Z,27.30
2019-06-01T21:11:44.702Z,27.30
2019-06-01T21:14:15.910Z,27.30
2019-06-01T21:16:46.854Z,27.30
2019-06-01T21:19:18.168Z,27.30
2019-06-01T21:21:48.884Z,27.30
2019-06-01T21:24:21.141Z,27.30
2019-06-01T21:26:52.223Z,27.30
2019-06-01T21:29:23.114Z,27.20
2019-06-01T21:31:54.166Z,27.20
2019-06-01T21:34:25.435Z,27.20
2019-06-01T21:36:56.435Z,27.20
2019-06-01T21:39:27.100Z,27.10
2019-06-01T21:41:58.083Z,27.10
2019-06-01T21:44:29.052Z,27.10
2019-06-01T21:47:00.129Z,27.10
2019-06-01T21:49:30.884Z,27.10
2019-06-01T21:52:01.900Z,27.10
2019-06-01T21:54:32.965Z,27.10
2019-06-01T21:57:03.849Z,27.00
2019-06-01T21:59:34.771Z,27.00
2019-06-01T22:02:06.854Z,27.00
2019-06-01T22:04:37.902Z,27.00
2019-06-01T22:07:08.945Z,27.00
2019-06-01T22:09:40.084Z,27.00
2019-06-01T22:12:10.944Z,27.00
2019-06-01T22:14:41.745Z,27.00
2019-06-01T22:17:12.746Z,27.00
2019-06-01T22:19:43.707Z,27.00
2019-06-01T22:22:14.840Z,27.00
2019-06-01T22:24:45.868Z,27.00
2019-06-01T22:27:18.016Z,27.00
2019-06-01T22:29:49.397Z,27.00
2019-06-01T22:32:24.023Z,27.00
2019-06-01T22:34:52.535Z,27.00
2019-06-01T22:37:23.738Z,27.00
2019-06-01T22:39:54.843Z,27.00
2019-06-01T22:42:26.398Z,27.00
2019-06-01T22:44:57.357Z,27.00
2019-06-01T22:47:29.018Z,27.00
2019-06-01T22:50:00.175Z,27.00
2019-06-01T22:52:31.272Z,27.00
2019-06-01T22:55:02.385Z,27.00
2019-06-01T22:57:33.617Z,27.00
2019-06-01T23:00:05.553Z,27.00
2019-06-01T23:02:36.781Z,27.10
2019-06-01T23:05:08.520Z,27.00
2019-06-01T23:07:39.314Z,27.00
2019-06-01T23:10:10.778Z,27.00
2019-06-01T23:12:41.688Z,27.10
2019-06-01T23:15:13.018Z,27.10
2019-06-01T23:17:43.947Z,27.10
2019-06-01T23:20:15.058Z,27.10
2019-06-01T23:22:46.034Z,27.10
2019-06-01T23:25:17.066Z,27.20
2019-06-01T23:27:48.094Z,27.20
2019-06-01T23:30:19.557Z,27.20
2019-06-01T23:32:50.710Z,27.20
2019-06-01T23:35:22.357Z,27.20
2019-06-01T23:37:53.376Z,27.30
2019-06-01T23:40:24.494Z,27.30
2019-06-01T23:42:55.452Z,27.30
2019-06-01T23:45:26.676Z,27.40
2019-06-01T23:47:58.028Z,27.40
2019-06-01T23:50:29.269Z,27.40
2019-06-01T23:53:12.822Z,27.50
2019-06-01T23:55:34.046Z,27.50
2019-06-01T23:58:05.302Z,27.50
